sensor_id;sensor_type;location;lat;lon;timestamp;P1;durP1;ratioP1;P2;durP2;ratioP2
7338;SDS011;33747;49.524;8.390;2022-12-24T00:01:46;15.32;;;3.22;;
7338;SDS011;33747;49.524;8.390;2022-12-24T00:04:11;9.95;;;2.50;;
7338;SDS011;33747;49.524;8.390;2022-12-24T00:06:36;10.90;;;2.72;;
7338;SDS011;33747;49.524;8.390;2022-12-24T00:09:02;13.02;;;3.05;;
7338;SDS011;33747;49.524;8.390;2022-12-24T00:11:27;12.80;;;3.28;;
7338;SDS011;33747;49.524;8.390;2022-12-24T00:13:53;5.68;;;2.05;;
7338;SDS011;33747;49.524;8.390;2022-12-24T00:16:18;15.10;;;2.78;;
7338;SDS011;33747;49.524;8.390;2022-12-24T00:18:44;12.20;;;2.47;;
7338;SDS011;33747;49.524;8.390;2022-12-24T00:21:09;10.98;;;2.95;;
7338;SDS011;33747;49.524;8.390;2022-12-24T00:23:34;10.20;;;2.60;;
7338;SDS011;33747;49.524;8.390;2022-12-24T00:26:00;15.48;;;2.85;;
7338;SDS011;33747;49.524;8.390;2022-12-24T00:28:25;12.63;;;2.35;;
7338;SDS011;33747;49.524;8.390;2022-12-24T00:30:51;6.90;;;1.63;;
7338;SDS011;33747;49.524;8.390;2022-12-24T00:33:16;9.90;;;2.00;;
7338;SDS011;33747;49.524;8.390;2022-12-24T00:35:41;9.32;;;2.63;;
7338;SDS011;33747;49.524;8.390;2022-12-24T00:38:07;14.55;;;2.50;;
7338;SDS011;33747;49.524;8.390;2022-12-24T00:40:33;10.27;;;2.05;;
7338;SDS011;33747;49.524;8.390;2022-12-24T00:42:59;10.48;;;2.22;;
7338;SDS011;33747;49.524;8.390;2022-12-24T00:45:24;10.13;;;2.58;;
7338;SDS011;33747;49.524;8.390;2022-12-24T00:47:51;11.25;;;2.47;;
7338;SDS011;33747;49.524;8.390;2022-12-24T00:50:17;14.30;;;2.33;;
7338;SDS011;33747;49.524;8.390;2022-12-24T00:52:42;12.77;;;2.85;;
7338;SDS011;33747;49.524;8.390;2022-12-24T00:55:08;14.13;;;2.20;;
7338;SDS011;33747;49.524;8.390;2022-12-24T00:57:33;11.82;;;2.03;;
7338;SDS011;33747;49.524;8.390;2022-12-24T00:59:59;7.38;;;2.53;;
7338;SDS011;33747;49.524;8.390;2022-12-24T01:02:24;10.43;;;2.22;;
7338;SDS011;33747;49.524;8.390;2022-12-24T01:04:50;7.00;;;2.28;;
7338;SDS011;33747;49.524;8.390;2022-12-24T01:07:44;13.00;;;2.80;;
7338;SDS011;33747;49.524;8.390;2022-12-24T01:10:10;8.23;;;1.98;;
7338;SDS011;33747;49.524;8.390;2022-12-24T01:12:37;20.05;;;2.75;;
7338;SDS011;33747;49.524;8.390;2022-12-24T01:15:03;15.90;;;2.72;;
7338;SDS011;33747;49.524;8.390;2022-12-24T01:17:33;15.60;;;2.72;;
7338;SDS011;33747;49.524;8.390;2022-12-24T01:19:59;13.13;;;2.80;;
7338;SDS011;33747;49.524;8.390;2022-12-24T01:22:24;12.77;;;2.05;;
7338;SDS011;33747;49.524;8.390;2022-12-24T01:24:50;17.70;;;2.58;;
7338;SDS011;33747;49.524;8.390;2022-12-24T01:27:15;12.05;;;2.42;;
7338;SDS011;33747;49.524;8.390;2022-12-24T01:29:41;11.60;;;3.05;;
7338;SDS011;33747;49.524;8.390;2022-12-24T01:32:06;10.95;;;2.40;;
7338;SDS011;33747;49.524;8.390;2022-12-24T01:34:31;12.43;;;2.40;;
7338;SDS011;33747;49.524;8.390;2022-12-24T01:36:57;10.30;;;2.85;;
7338;SDS011;33747;49.524;8.390;2022-12-24T01:39:22;13.32;;;2.53;;
7338;SDS011;33747;49.524;8.390;2022-12-24T01:41:48;18.08;;;3.25;;
7338;SDS011;33747;49.524;8.390;2022-12-24T01:44:33;17.25;;;2.63;;
7338;SDS011;33747;49.524;8.390;2022-12-24T01:47:02;14.80;;;2.63;;
7338;SDS011;33747;49.524;8.390;2022-12-24T01:49:41;7.93;;;2.10;;
7338;SDS011;33747;49.524;8.390;2022-12-24T01:52:15;17.15;;;2.15;;
7338;SDS011;33747;49.524;8.390;2022-12-24T01:54:46;10.73;;;2.42;;
7338;SDS011;33747;49.524;8.390;2022-12-24T01:57:29;13.45;;;2.75;;
7338;SDS011;33747;49.524;8.390;2022-12-24T01:59:57;9.88;;;2.70;;
7338;SDS011;33747;49.524;8.390;2022-12-24T02:02:26;14.80;;;3.10;;
7338;SDS011;33747;49.524;8.390;2022-12-24T02:07:29;11.20;;;2.67;;
7338;SDS011;33747;49.524;8.390;2022-12-24T02:09:56;11.45;;;2.30;;
7338;SDS011;33747;49.524;8.390;2022-12-24T02:12:22;10.38;;;2.60;;
7338;SDS011;33747;49.524;8.390;2022-12-24T02:14:48;11.90;;;2.30;;
7338;SDS011;33747;49.524;8.390;2022-12-24T02:20:02;19.80;;;2.75;;
7338;SDS011;33747;49.524;8.390;2022-12-24T02:22:50;14.00;;;2.45;;
7338;SDS011;33747;49.524;8.390;2022-12-24T02:34:18;12.52;;;2.95;;
7338;SDS011;33747;49.524;8.390;2022-12-24T02:36:54;17.13;;;2.85;;
7338;SDS011;33747;49.524;8.390;2022-12-24T02:39:30;9.82;;;2.10;;
7338;SDS011;33747;49.524;8.390;2022-12-24T02:42:00;11.30;;;2.50;;
7338;SDS011;33747;49.524;8.390;2022-12-24T02:44:29;14.68;;;2.05;;
7338;SDS011;33747;49.524;8.390;2022-12-24T02:46:58;9.95;;;2.13;;
7338;SDS011;33747;49.524;8.390;2022-12-24T02:49:24;16.23;;;2.72;;
7338;SDS011;33747;49.524;8.390;2022-12-24T02:51:50;14.57;;;2.72;;
7338;SDS011;33747;49.524;8.390;2022-12-24T02:54:15;17.85;;;2.72;;
7338;SDS011;33747;49.524;8.390;2022-12-24T02:59:42;12.68;;;2.80;;
7338;SDS011;33747;49.524;8.390;2022-12-24T03:04:51;14.23;;;3.28;;
7338;SDS011;33747;49.524;8.390;2022-12-24T03:07:21;12.07;;;3.17;;
7338;SDS011;33747;49.524;8.390;2022-12-24T03:10:18;8.32;;;2.33;;
7338;SDS011;33747;49.524;8.390;2022-12-24T03:12:50;10.05;;;2.33;;
7338;SDS011;33747;49.524;8.390;2022-12-24T03:15:17;12.10;;;2.30;;
7338;SDS011;33747;49.524;8.390;2022-12-24T03:17:46;14.30;;;2.47;;
7338;SDS011;33747;49.524;8.390;2022-12-24T03:20:14;10.27;;;2.47;;
7338;SDS011;33747;49.524;8.390;2022-12-24T03:22:43;8.65;;;2.78;;
7338;SDS011;33747;49.524;8.390;2022-12-24T03:25:09;10.82;;;2.25;;
7338;SDS011;33747;49.524;8.390;2022-12-24T03:27:34;12.60;;;2.53;;
7338;SDS011;33747;49.524;8.390;2022-12-24T03:30:01;16.30;;;2.80;;
7338;SDS011;33747;49.524;8.390;2022-12-24T03:32:28;13.25;;;3.60;;
7338;SDS011;33747;49.524;8.390;2022-12-24T03:34:54;14.30;;;2.45;;
7338;SDS011;33747;49.524;8.390;2022-12-24T03:37:20;16.42;;;3.38;;
7338;SDS011;33747;49.524;8.390;2022-12-24T03:39:45;14.20;;;2.65;;
7338;SDS011;33747;49.524;8.390;2022-12-24T03:42:11;15.45;;;3.40;;
7338;SDS011;33747;49.524;8.390;2022-12-24T03:44:36;15.25;;;2.72;;
7338;SDS011;33747;49.524;8.390;2022-12-24T03:47:02;13.55;;;2.47;;
7338;SDS011;33747;49.524;8.390;2022-12-24T03:49:27;17.23;;;2.60;;
7338;SDS011;33747;49.524;8.390;2022-12-24T03:51:52;19.73;;;2.47;;
7338;SDS011;33747;49.524;8.390;2022-12-24T03:54:18;13.40;;;2.72;;
7338;SDS011;33747;49.524;8.390;2022-12-24T03:56:43;18.38;;;3.78;;
7338;SDS011;33747;49.524;8.390;2022-12-24T03:59:08;16.63;;;3.40;;
7338;SDS011;33747;49.524;8.390;2022-12-24T04:01:34;19.45;;;3.45;;
7338;SDS011;33747;49.524;8.390;2022-12-24T04:03:59;8.68;;;1.95;;
7338;SDS011;33747;49.524;8.390;2022-12-24T04:06:25;15.43;;;2.97;;
7338;SDS011;33747;49.524;8.390;2022-12-24T04:08:50;9.85;;;2.38;;
7338;SDS011;33747;49.524;8.390;2022-12-24T04:11:15;15.15;;;2.90;;
7338;SDS011;33747;49.524;8.390;2022-12-24T04:13:41;12.13;;;2.83;;
7338;SDS011;33747;49.524;8.390;2022-12-24T04:16:07;19.25;;;3.13;;
7338;SDS011;33747;49.524;8.390;2022-12-24T04:18:35;19.70;;;3.53;;
7338;SDS011;33747;49.524;8.390;2022-12-24T04:21:00;14.38;;;3.42;;
7338;SDS011;33747;49.524;8.390;2022-12-24T04:23:25;13.65;;;3.00;;
7338;SDS011;33747;49.524;8.390;2022-12-24T04:25:51;12.63;;;2.95;;
7338;SDS011;33747;49.524;8.390;2022-12-24T04:28:16;23.73;;;3.80;;
7338;SDS011;33747;49.524;8.390;2022-12-24T04:30:42;18.08;;;3.45;;
7338;SDS011;33747;49.524;8.390;2022-12-24T04:33:08;14.85;;;3.10;;
7338;SDS011;33747;49.524;8.390;2022-12-24T04:35:37;20.50;;;3.30;;
7338;SDS011;33747;49.524;8.390;2022-12-24T04:38:05;20.42;;;2.88;;
7338;SDS011;33747;49.524;8.390;2022-12-24T04:40:31;15.43;;;3.67;;
7338;SDS011;33747;49.524;8.390;2022-12-24T04:42:57;14.82;;;2.83;;
7338;SDS011;33747;49.524;8.390;2022-12-24T04:45:22;17.25;;;3.45;;
7338;SDS011;33747;49.524;8.390;2022-12-24T04:47:48;22.58;;;3.58;;
7338;SDS011;33747;49.524;8.390;2022-12-24T04:50:13;13.57;;;2.42;;
7338;SDS011;33747;49.524;8.390;2022-12-24T04:52:38;21.67;;;4.43;;
7338;SDS011;33747;49.524;8.390;2022-12-24T04:55:04;11.57;;;3.13;;
7338;SDS011;33747;49.524;8.390;2022-12-24T04:57:30;12.50;;;3.70;;
7338;SDS011;33747;49.524;8.390;2022-12-24T04:59:56;13.32;;;3.15;;
7338;SDS011;33747;49.524;8.390;2022-12-24T05:02:21;21.60;;;3.78;;
7338;SDS011;33747;49.524;8.390;2022-12-24T05:04:47;14.82;;;2.90;;
7338;SDS011;33747;49.524;8.390;2022-12-24T05:07:12;19.65;;;3.63;;
7338;SDS011;33747;49.524;8.390;2022-12-24T05:09:38;15.23;;;3.17;;
7338;SDS011;33747;49.524;8.390;2022-12-24T05:12:03;16.92;;;3.30;;
7338;SDS011;33747;49.524;8.390;2022-12-24T05:14:28;21.13;;;2.55;;
7338;SDS011;33747;49.524;8.390;2022-12-24T05:16:54;24.08;;;4.07;;
7338;SDS011;33747;49.524;8.390;2022-12-24T05:19:19;16.23;;;3.47;;
7338;SDS011;33747;49.524;8.390;2022-12-24T05:21:45;21.75;;;4.35;;
7338;SDS011;33747;49.524;8.390;2022-12-24T05:24:30;24.15;;;3.72;;
7338;SDS011;33747;49.524;8.390;2022-12-24T05:27:14;17.27;;;3.53;;
7338;SDS011;33747;49.524;8.390;2022-12-24T05:29:39;20.13;;;3.67;;
7338;SDS011;33747;49.524;8.390;2022-12-24T05:32:05;14.38;;;3.20;;
7338;SDS011;33747;49.524;8.390;2022-12-24T05:34:30;21.92;;;3.90;;
7338;SDS011;33747;49.524;8.390;2022-12-24T05:36:55;17.45;;;3.60;;
7338;SDS011;33747;49.524;8.390;2022-12-24T05:39:21;30.08;;;3.85;;
7338;SDS011;33747;49.524;8.390;2022-12-24T05:41:46;26.15;;;4.25;;
7338;SDS011;33747;49.524;8.390;2022-12-24T05:44:12;23.83;;;4.22;;
7338;SDS011;33747;49.524;8.390;2022-12-24T05:46:38;20.40;;;4.15;;
7338;SDS011;33747;49.524;8.390;2022-12-24T05:49:03;18.98;;;4.60;;
7338;SDS011;33747;49.524;8.390;2022-12-24T05:51:29;23.98;;;4.05;;
7338;SDS011;33747;49.524;8.390;2022-12-24T05:53:54;18.35;;;3.53;;
7338;SDS011;33747;49.524;8.390;2022-12-24T05:56:20;27.17;;;4.65;;
7338;SDS011;33747;49.524;8.390;2022-12-24T05:58:47;24.35;;;4.50;;
7338;SDS011;33747;49.524;8.390;2022-12-24T06:01:13;19.15;;;3.97;;
7338;SDS011;33747;49.524;8.390;2022-12-24T06:03:38;23.63;;;4.78;;
7338;SDS011;33747;49.524;8.390;2022-12-24T06:06:08;21.08;;;3.33;;
7338;SDS011;33747;49.524;8.390;2022-12-24T06:08:39;21.75;;;3.92;;
7338;SDS011;33747;49.524;8.390;2022-12-24T06:11:06;19.85;;;4.07;;
7338;SDS011;33747;49.524;8.390;2022-12-24T06:13:33;27.30;;;3.88;;
7338;SDS011;33747;49.524;8.390;2022-12-24T06:15:59;24.77;;;3.55;;
7338;SDS011;33747;49.524;8.390;2022-12-24T06:18:27;15.18;;;3.53;;
7338;SDS011;33747;49.524;8.390;2022-12-24T06:20:53;26.92;;;4.65;;
7338;SDS011;33747;49.524;8.390;2022-12-24T06:23:19;26.05;;;4.53;;
7338;SDS011;33747;49.524;8.390;2022-12-24T06:25:46;26.85;;;3.83;;
7338;SDS011;33747;49.524;8.390;2022-12-24T06:28:11;15.75;;;4.28;;
7338;SDS011;33747;49.524;8.390;2022-12-24T06:30:37;22.15;;;2.80;;
7338;SDS011;33747;49.524;8.390;2022-12-24T06:33:02;19.40;;;3.60;;
7338;SDS011;33747;49.524;8.390;2022-12-24T06:35:29;21.85;;;4.13;;
7338;SDS011;33747;49.524;8.390;2022-12-24T06:37:55;28.23;;;4.07;;
7338;SDS011;33747;49.524;8.390;2022-12-24T06:40:20;33.38;;;4.88;;
7338;SDS011;33747;49.524;8.390;2022-12-24T06:42:46;24.05;;;3.78;;
7338;SDS011;33747;49.524;8.390;2022-12-24T06:45:11;27.73;;;4.78;;
7338;SDS011;33747;49.524;8.390;2022-12-24T06:47:37;20.58;;;4.05;;
7338;SDS011;33747;49.524;8.390;2022-12-24T06:50:02;31.23;;;4.30;;
7338;SDS011;33747;49.524;8.390;2022-12-24T06:52:28;19.27;;;3.75;;
7338;SDS011;33747;49.524;8.390;2022-12-24T06:54:53;22.00;;;4.03;;
7338;SDS011;33747;49.524;8.390;2022-12-24T06:57:18;22.67;;;4.22;;
7338;SDS011;33747;49.524;8.390;2022-12-24T06:59:44;28.95;;;5.40;;
7338;SDS011;33747;49.524;8.390;2022-12-24T07:02:09;26.95;;;4.25;;
7338;SDS011;33747;49.524;8.390;2022-12-24T07:04:34;26.10;;;4.10;;
7338;SDS011;33747;49.524;8.390;2022-12-24T07:07:00;28.90;;;4.93;;
7338;SDS011;33747;49.524;8.390;2022-12-24T07:09:25;27.70;;;4.60;;
7338;SDS011;33747;49.524;8.390;2022-12-24T07:11:51;25.02;;;4.30;;
7338;SDS011;33747;49.524;8.390;2022-12-24T07:14:16;28.85;;;4.28;;
7338;SDS011;33747;49.524;8.390;2022-12-24T07:16:41;27.30;;;4.03;;
7338;SDS011;33747;49.524;8.390;2022-12-24T07:19:07;22.73;;;4.25;;
7338;SDS011;33747;49.524;8.390;2022-12-24T07:21:32;30.58;;;4.28;;
7338;SDS011;33747;49.524;8.390;2022-12-24T07:23:57;22.73;;;3.85;;
7338;SDS011;33747;49.524;8.390;2022-12-24T07:26:23;21.77;;;3.60;;
7338;SDS011;33747;49.524;8.390;2022-12-24T07:28:48;24.25;;;4.65;;
7338;SDS011;33747;49.524;8.390;2022-12-24T07:31:14;32.90;;;5.53;;
7338;SDS011;33747;49.524;8.390;2022-12-24T07:33:39;28.92;;;4.88;;
7338;SDS011;33747;49.524;8.390;2022-12-24T07:36:05;26.70;;;4.75;;
7338;SDS011;33747;49.524;8.390;2022-12-24T07:38:33;28.20;;;4.20;;
7338;SDS011;33747;49.524;8.390;2022-12-24T07:40:58;21.50;;;4.28;;
7338;SDS011;33747;49.524;8.390;2022-12-24T07:43:25;21.42;;;3.78;;
7338;SDS011;33747;49.524;8.390;2022-12-24T07:45:53;28.13;;;4.22;;
7338;SDS011;33747;49.524;8.390;2022-12-24T07:48:20;23.90;;;5.30;;
7338;SDS011;33747;49.524;8.390;2022-12-24T07:50:47;24.10;;;4.32;;
7338;SDS011;33747;49.524;8.390;2022-12-24T07:53:13;25.42;;;4.72;;
7338;SDS011;33747;49.524;8.390;2022-12-24T07:55:38;22.35;;;5.07;;
7338;SDS011;33747;49.524;8.390;2022-12-24T07:58:04;26.00;;;3.97;;
7338;SDS011;33747;49.524;8.390;2022-12-24T08:00:29;28.02;;;5.03;;
7338;SDS011;33747;49.524;8.390;2022-12-24T08:02:54;31.33;;;4.53;;
7338;SDS011;33747;49.524;8.390;2022-12-24T08:05:20;20.88;;;4.15;;
7338;SDS011;33747;49.524;8.390;2022-12-24T08:07:45;19.08;;;4.78;;
7338;SDS011;33747;49.524;8.390;2022-12-24T08:10:10;25.33;;;4.82;;
7338;SDS011;33747;49.524;8.390;2022-12-24T08:12:36;27.30;;;4.20;;
7338;SDS011;33747;49.524;8.390;2022-12-24T08:15:01;29.60;;;5.55;;
7338;SDS011;33747;49.524;8.390;2022-12-24T08:17:27;28.30;;;3.50;;
7338;SDS011;33747;49.524;8.390;2022-12-24T08:19:52;27.52;;;4.45;;
7338;SDS011;33747;49.524;8.390;2022-12-24T08:22:17;37.00;;;5.15;;
7338;SDS011;33747;49.524;8.390;2022-12-24T08:24:43;22.63;;;4.10;;
7338;SDS011;33747;49.524;8.390;2022-12-24T08:27:08;23.20;;;5.00;;
7338;SDS011;33747;49.524;8.390;2022-12-24T08:29:33;30.42;;;5.90;;
7338;SDS011;33747;49.524;8.390;2022-12-24T08:31:59;27.10;;;5.28;;
7338;SDS011;33747;49.524;8.390;2022-12-24T08:34:24;30.75;;;4.53;;
7338;SDS011;33747;49.524;8.390;2022-12-24T08:36:50;24.08;;;4.63;;
7338;SDS011;33747;49.524;8.390;2022-12-24T08:39:15;24.13;;;4.88;;
7338;SDS011;33747;49.524;8.390;2022-12-24T08:41:40;28.70;;;5.22;;
7338;SDS011;33747;49.524;8.390;2022-12-24T08:44:06;23.25;;;4.93;;
7338;SDS011;33747;49.524;8.390;2022-12-24T08:46:31;29.88;;;5.13;;
7338;SDS011;33747;49.524;8.390;2022-12-24T08:48:56;28.58;;;4.55;;
7338;SDS011;33747;49.524;8.390;2022-12-24T08:51:22;28.48;;;5.07;;
7338;SDS011;33747;49.524;8.390;2022-12-24T08:53:47;28.77;;;4.90;;
7338;SDS011;33747;49.524;8.390;2022-12-24T08:56:13;22.27;;;4.28;;
7338;SDS011;33747;49.524;8.390;2022-12-24T08:58:38;30.45;;;5.82;;
7338;SDS011;33747;49.524;8.390;2022-12-24T09:01:11;24.67;;;4.63;;
7338;SDS011;33747;49.524;8.390;2022-12-24T09:03:38;20.63;;;4.47;;
7338;SDS011;33747;49.524;8.390;2022-12-24T09:06:04;31.50;;;4.57;;
7338;SDS011;33747;49.524;8.390;2022-12-24T09:08:30;20.60;;;4.30;;
7338;SDS011;33747;49.524;8.390;2022-12-24T09:11:01;18.17;;;4.13;;
7338;SDS011;33747;49.524;8.390;2022-12-24T09:13:28;30.97;;;4.33;;
7338;SDS011;33747;49.524;8.390;2022-12-24T09:15:54;29.33;;;4.55;;
7338;SDS011;33747;49.524;8.390;2022-12-24T09:18:19;19.90;;;3.95;;
7338;SDS011;33747;49.524;8.390;2022-12-24T09:20:45;29.88;;;4.88;;
7338;SDS011;33747;49.524;8.390;2022-12-24T09:23:10;28.77;;;5.20;;
7338;SDS011;33747;49.524;8.390;2022-12-24T09:25:39;21.13;;;4.13;;
7338;SDS011;33747;49.524;8.390;2022-12-24T09:28:05;24.60;;;4.10;;
7338;SDS011;33747;49.524;8.390;2022-12-24T09:30:31;24.40;;;4.35;;
7338;SDS011;33747;49.524;8.390;2022-12-24T09:32:56;19.65;;;3.83;;
7338;SDS011;33747;49.524;8.390;2022-12-24T09:35:22;27.38;;;4.47;;
7338;SDS011;33747;49.524;8.390;2022-12-24T09:37:47;29.70;;;5.32;;
7338;SDS011;33747;49.524;8.390;2022-12-24T09:40:23;33.13;;;5.15;;
7338;SDS011;33747;49.524;8.390;2022-12-24T09:42:53;26.42;;;4.07;;
7338;SDS011;33747;49.524;8.390;2022-12-24T09:47:47;27.25;;;5.30;;
7338;SDS011;33747;49.524;8.390;2022-12-24T09:53:18;29.60;;;5.15;;
7338;SDS011;33747;49.524;8.390;2022-12-24T09:55:49;26.83;;;5.00;;
7338;SDS011;33747;49.524;8.390;2022-12-24T09:58:20;18.63;;;3.83;;
7338;SDS011;33747;49.524;8.390;2022-12-24T10:00:49;24.23;;;5.30;;
7338;SDS011;33747;49.524;8.390;2022-12-24T10:03:15;21.00;;;4.38;;
7338;SDS011;33747;49.524;8.390;2022-12-24T10:11:37;27.15;;;5.70;;
7338;SDS011;33747;49.524;8.390;2022-12-24T10:25:00;32.03;;;6.43;;
7338;SDS011;33747;49.524;8.390;2022-12-24T10:27:34;22.52;;;4.50;;
7338;SDS011;33747;49.524;8.390;2022-12-24T10:30:06;24.92;;;4.35;;
7338;SDS011;33747;49.524;8.390;2022-12-24T10:32:38;24.13;;;4.78;;
7338;SDS011;33747;49.524;8.390;2022-12-24T10:37:38;28.52;;;4.93;;
7338;SDS011;33747;49.524;8.390;2022-12-24T10:40:04;25.35;;;4.70;;
7338;SDS011;33747;49.524;8.390;2022-12-24T10:42:39;25.83;;;4.35;;
7338;SDS011;33747;49.524;8.390;2022-12-24T10:45:09;23.77;;;3.97;;
7338;SDS011;33747;49.524;8.390;2022-12-24T10:47:39;25.70;;;4.55;;
7338;SDS011;33747;49.524;8.390;2022-12-24T10:50:15;20.83;;;4.72;;
7338;SDS011;33747;49.524;8.390;2022-12-24T10:52:45;33.55;;;5.22;;
7338;SDS011;33747;49.524;8.390;2022-12-24T10:55:20;21.95;;;4.97;;
7338;SDS011;33747;49.524;8.390;2022-12-24T10:58:04;31.27;;;5.22;;
7338;SDS011;33747;49.524;8.390;2022-12-24T11:00:30;17.83;;;4.72;;
7338;SDS011;33747;49.524;8.390;2022-12-24T11:05:36;24.55;;;4.65;;
7338;SDS011;33747;49.524;8.390;2022-12-24T11:08:03;24.27;;;4.80;;
7338;SDS011;33747;49.524;8.390;2022-12-24T11:10:30;27.00;;;4.60;;
7338;SDS011;33747;49.524;8.390;2022-12-24T11:12:57;22.98;;;4.72;;
7338;SDS011;33747;49.524;8.390;2022-12-24T11:15:28;28.55;;;5.10;;
7338;SDS011;33747;49.524;8.390;2022-12-24T11:17:57;23.20;;;3.78;;
7338;SDS011;33747;49.524;8.390;2022-12-24T11:20:26;27.75;;;5.03;;
7338;SDS011;33747;49.524;8.390;2022-12-24T11:22:52;23.33;;;4.82;;
7338;SDS011;33747;49.524;8.390;2022-12-24T11:25:19;26.60;;;4.60;;
7338;SDS011;33747;49.524;8.390;2022-12-24T11:27:47;27.27;;;4.40;;
7338;SDS011;33747;49.524;8.390;2022-12-24T11:32:49;30.83;;;5.20;;
7338;SDS011;33747;49.524;8.390;2022-12-24T11:35:38;24.15;;;4.72;;
7338;SDS011;33747;49.524;8.390;2022-12-24T11:40:33;20.55;;;4.00;;
7338;SDS011;33747;49.524;8.390;2022-12-24T11:43:00;21.65;;;4.43;;
7338;SDS011;33747;49.524;8.390;2022-12-24T11:45:26;29.67;;;4.70;;
7338;SDS011;33747;49.524;8.390;2022-12-24T11:47:53;26.38;;;5.50;;
7338;SDS011;33747;49.524;8.390;2022-12-24T11:50:34;16.98;;;3.22;;
7338;SDS011;33747;49.524;8.390;2022-12-24T11:53:04;19.13;;;3.80;;
7338;SDS011;33747;49.524;8.390;2022-12-24T11:55:51;22.52;;;4.38;;
7338;SDS011;33747;49.524;8.390;2022-12-24T11:58:36;20.98;;;4.47;;
7338;SDS011;33747;49.524;8.390;2022-12-24T12:03:39;21.95;;;4.07;;
7338;SDS011;33747;49.524;8.390;2022-12-24T12:06:39;24.63;;;4.05;;
7338;SDS011;33747;49.524;8.390;2022-12-24T12:09:11;18.80;;;3.33;;
7338;SDS011;33747;49.524;8.390;2022-12-24T12:11:39;28.58;;;4.85;;
7338;SDS011;33747;49.524;8.390;2022-12-24T12:14:07;19.55;;;4.57;;
7338;SDS011;33747;49.524;8.390;2022-12-24T12:19:36;22.80;;;5.03;;
7338;SDS011;33747;49.524;8.390;2022-12-24T12:22:06;20.08;;;3.95;;
7338;SDS011;33747;49.524;8.390;2022-12-24T12:24:41;18.63;;;3.67;;
7338;SDS011;33747;49.524;8.390;2022-12-24T12:27:13;27.75;;;4.22;;
7338;SDS011;33747;49.524;8.390;2022-12-24T12:29:44;24.70;;;4.95;;
7338;SDS011;33747;49.524;8.390;2022-12-24T12:32:27;22.52;;;4.75;;
7338;SDS011;33747;49.524;8.390;2022-12-24T12:35:41;22.40;;;4.43;;
7338;SDS011;33747;49.524;8.390;2022-12-24T12:37:51;17.65;;;3.95;;
7338;SDS011;33747;49.524;8.390;2022-12-24T12:40:20;25.30;;;4.30;;
7338;SDS011;33747;49.524;8.390;2022-12-24T12:43:01;26.13;;;4.50;;
7338;SDS011;33747;49.524;8.390;2022-12-24T12:45:42;18.90;;;4.25;;
7338;SDS011;33747;49.524;8.390;2022-12-24T12:51:31;25.17;;;4.35;;
7338;SDS011;33747;49.524;8.390;2022-12-24T12:54:31;22.30;;;4.78;;
7338;SDS011;33747;49.524;8.390;2022-12-24T12:57:22;19.88;;;3.95;;
7338;SDS011;33747;49.524;8.390;2022-12-24T12:59:53;19.65;;;3.47;;
7338;SDS011;33747;49.524;8.390;2022-12-24T13:16:18;23.20;;;4.57;;
7338;SDS011;33747;49.524;8.390;2022-12-24T13:21:34;20.92;;;3.97;;
7338;SDS011;33747;49.524;8.390;2022-12-24T13:24:03;18.90;;;4.43;;
7338;SDS011;33747;49.524;8.390;2022-12-24T13:26:30;19.95;;;4.18;;
7338;SDS011;33747;49.524;8.390;2022-12-24T13:29:03;19.02;;;3.90;;
7338;SDS011;33747;49.524;8.390;2022-12-24T13:32:03;19.17;;;3.85;;
7338;SDS011;33747;49.524;8.390;2022-12-24T13:34:48;20.95;;;4.18;;
7338;SDS011;33747;49.524;8.390;2022-12-24T13:39:59;21.50;;;4.32;;
7338;SDS011;33747;49.524;8.390;2022-12-24T13:47:53;20.80;;;3.42;;
7338;SDS011;33747;49.524;8.390;2022-12-24T13:50:23;19.70;;;4.25;;
7338;SDS011;33747;49.524;8.390;2022-12-24T13:56:19;21.35;;;4.38;;
7338;SDS011;33747;49.524;8.390;2022-12-24T13:58:51;26.48;;;4.88;;
7338;SDS011;33747;49.524;8.390;2022-12-24T14:01:20;17.63;;;4.00;;
7338;SDS011;33747;49.524;8.390;2022-12-24T14:03:51;19.80;;;4.85;;
7338;SDS011;33747;49.524;8.390;2022-12-24T14:08:44;16.85;;;3.92;;
7338;SDS011;33747;49.524;8.390;2022-12-24T14:11:12;19.20;;;3.97;;
7338;SDS011;33747;49.524;8.390;2022-12-24T14:16:12;19.05;;;3.60;;
7338;SDS011;33747;49.524;8.390;2022-12-24T14:18:39;21.00;;;4.07;;
7338;SDS011;33747;49.524;8.390;2022-12-24T14:21:11;19.70;;;3.75;;
7338;SDS011;33747;49.524;8.390;2022-12-24T14:23:48;19.60;;;3.60;;
7338;SDS011;33747;49.524;8.390;2022-12-24T14:26:19;18.15;;;3.95;;
7338;SDS011;33747;49.524;8.390;2022-12-24T14:31:51;31.15;;;12.75;;
7338;SDS011;33747;49.524;8.390;2022-12-24T14:34:20;36.08;;;11.88;;
7338;SDS011;33747;49.524;8.390;2022-12-24T14:36:46;39.97;;;15.25;;
7338;SDS011;33747;49.524;8.390;2022-12-24T14:39:31;22.70;;;6.45;;
7338;SDS011;33747;49.524;8.390;2022-12-24T14:42:01;14.20;;;4.80;;
7338;SDS011;33747;49.524;8.390;2022-12-24T14:44:47;20.15;;;4.90;;
7338;SDS011;33747;49.524;8.390;2022-12-24T14:47:21;15.68;;;3.72;;
7338;SDS011;33747;49.524;8.390;2022-12-24T14:49:59;18.65;;;4.32;;
7338;SDS011;33747;49.524;8.390;2022-12-24T14:52:57;16.42;;;4.30;;
7338;SDS011;33747;49.524;8.390;2022-12-24T14:55:42;19.70;;;3.78;;
7338;SDS011;33747;49.524;8.390;2022-12-24T14:58:18;23.98;;;4.68;;
7338;SDS011;33747;49.524;8.390;2022-12-24T15:00:49;16.00;;;3.28;;
7338;SDS011;33747;49.524;8.390;2022-12-24T15:03:16;16.83;;;3.40;;
7338;SDS011;33747;49.524;8.390;2022-12-24T15:05:42;18.00;;;3.80;;
7338;SDS011;33747;49.524;8.390;2022-12-24T15:08:27;17.90;;;3.72;;
7338;SDS011;33747;49.524;8.390;2022-12-24T15:10:56;11.63;;;2.90;;
7338;SDS011;33747;49.524;8.390;2022-12-24T15:16:01;18.45;;;3.80;;
7338;SDS011;33747;49.524;8.390;2022-12-24T15:18:28;11.55;;;2.90;;
7338;SDS011;33747;49.524;8.390;2022-12-24T15:20:56;17.73;;;3.78;;
7338;SDS011;33747;49.524;8.390;2022-12-24T15:23:27;24.65;;;4.07;;
7338;SDS011;33747;49.524;8.390;2022-12-24T15:26:16;14.35;;;3.55;;
7338;SDS011;33747;49.524;8.390;2022-12-24T15:28:42;16.48;;;5.07;;
7338;SDS011;33747;49.524;8.390;2022-12-24T15:31:12;15.90;;;4.43;;
7338;SDS011;33747;49.524;8.390;2022-12-24T15:33:39;15.98;;;4.90;;
7338;SDS011;33747;49.524;8.390;2022-12-24T15:36:05;19.00;;;4.60;;
7338;SDS011;33747;49.524;8.390;2022-12-24T15:38:33;16.85;;;4.05;;
7338;SDS011;33747;49.524;8.390;2022-12-24T15:41:05;14.60;;;5.03;;
7338;SDS011;33747;49.524;8.390;2022-12-24T15:43:39;22.20;;;4.78;;
7338;SDS011;33747;49.524;8.390;2022-12-24T15:46:04;16.77;;;4.30;;
7338;SDS011;33747;49.524;8.390;2022-12-24T15:48:30;22.45;;;3.90;;
7338;SDS011;33747;49.524;8.390;2022-12-24T15:50:57;20.08;;;4.65;;
7338;SDS011;33747;49.524;8.390;2022-12-24T15:53:25;18.85;;;4.63;;
7338;SDS011;33747;49.524;8.390;2022-12-24T15:56:08;17.55;;;4.65;;
7338;SDS011;33747;49.524;8.390;2022-12-24T15:58:42;19.65;;;4.45;;
7338;SDS011;33747;49.524;8.390;2022-12-24T16:03:40;13.50;;;4.25;;
7338;SDS011;33747;49.524;8.390;2022-12-24T16:06:17;18.35;;;5.15;;
7338;SDS011;33747;49.524;8.390;2022-12-24T16:08:44;18.33;;;5.22;;
7338;SDS011;33747;49.524;8.390;2022-12-24T16:16:14;21.05;;;5.60;;
7338;SDS011;33747;49.524;8.390;2022-12-24T16:21:34;18.23;;;6.25;;
7338;SDS011;33747;49.524;8.390;2022-12-24T16:24:05;19.10;;;5.40;;
7338;SDS011;33747;49.524;8.390;2022-12-24T16:26:32;27.35;;;7.38;;
7338;SDS011;33747;49.524;8.390;2022-12-24T16:28:58;25.30;;;6.72;;
7338;SDS011;33747;49.524;8.390;2022-12-24T16:31:27;21.27;;;5.70;;
7338;SDS011;33747;49.524;8.390;2022-12-24T16:33:56;17.10;;;6.32;;
7338;SDS011;33747;49.524;8.390;2022-12-24T16:36:22;20.50;;;6.20;;
7338;SDS011;33747;49.524;8.390;2022-12-24T16:38:47;19.00;;;5.05;;
7338;SDS011;33747;49.524;8.390;2022-12-24T16:41:31;30.38;;;7.63;;
7338;SDS011;33747;49.524;8.390;2022-12-24T16:44:17;21.73;;;5.47;;
7338;SDS011;33747;49.524;8.390;2022-12-24T16:46:42;21.20;;;6.03;;
7338;SDS011;33747;49.524;8.390;2022-12-24T16:49:11;22.40;;;6.30;;